sensor_id;sensor_type;location;lat;lon;timestamp;pressure;altitude;pressure_sealevel;temperature;humidity
35443;BME280;21561;55.654;37.592;2023-05-12T00:02:11;99911.09;;;12.19;57.92
35443;BME280;21561;55.654;37.592;2023-05-12T00:04:38;99916.22;;;12.22;57.96
35443;BME280;21561;55.654;37.592;2023-05-12T00:07:05;99918.00;;;12.20;57.56
35443;BME280;21561;55.654;37.592;2023-05-12T00:09:32;99925.81;;;12.18;57.92
35443;BME280;21561;55.654;37.592;2023-05-12T00:11:59;99934.53;;;12.14;58.22
35443;BME280;21561;55.654;37.592;2023-05-12T00:14:26;99917.16;;;12.15;57.47
35443;BME280;21561;55.654;37.592;2023-05-12T00:16:53;99908.50;;;12.17;57.29
35443;BME280;21561;55.654;37.592;2023-05-12T00:19:20;99914.56;;;12.18;57.05
35443;BME280;21561;55.654;37.592;2023-05-12T00:21:46;99910.25;;;12.17;56.74
35443;BME280;21561;55.654;37.592;2023-05-12T00:24:13;99914.56;;;12.15;56.65
35443;BME280;21561;55.654;37.592;2023-05-12T00:26:40;99914.56;;;12.15;56.67
35443;BME280;21561;55.654;37.592;2023-05-12T00:29:06;99904.16;;;12.15;56.49
35443;BME280;21561;55.654;37.592;2023-05-12T00:31:33;99907.66;;;12.14;56.45
35443;BME280;21561;55.654;37.592;2023-05-12T00:34:00;99905.06;;;12.14;56.80
35443;BME280;21561;55.654;37.592;2023-05-12T00:36:27;99908.53;;;12.11;56.90
35443;BME280;21561;55.654;37.592;2023-05-12T00:38:53;99905.94;;;12.11;56.69
35443;BME280;21561;55.654;37.592;2023-05-12T00:41:21;99907.69;;;12.08;57.03
35443;BME280;21561;55.654;37.592;2023-05-12T00:43:47;99906.00;;;12.07;56.66
35443;BME280;21561;55.654;37.592;2023-05-12T00:46:14;99907.75;;;12.05;56.82
35443;BME280;21561;55.654;37.592;2023-05-12T00:48:42;99905.16;;;12.03;57.08
35443;BME280;21561;55.654;37.592;2023-05-12T00:51:09;99902.59;;;11.98;56.61
35443;BME280;21561;55.654;37.592;2023-05-12T00:53:36;99899.13;;;11.99;56.26
35443;BME280;21561;55.654;37.592;2023-05-12T00:56:15;99895.63;;;12.00;56.44
35443;BME280;21561;55.654;37.592;2023-05-12T00:58:43;99899.13;;;11.96;56.81
35443;BME280;21561;55.654;37.592;2023-05-12T01:01:09;99899.13;;;11.99;56.37
35443;BME280;21561;55.654;37.592;2023-05-12T01:03:36;99899.13;;;11.96;56.40
35443;BME280;21561;55.654;37.592;2023-05-12T01:08:35;99909.59;;;11.89;56.81
35443;BME280;21561;55.654;37.592;2023-05-12T01:11:02;99916.56;;;11.83;57.45
35443;BME280;21561;55.654;37.592;2023-05-12T01:13:29;99900.97;;;11.82;56.64
35443;BME280;21561;55.654;37.592;2023-05-12T01:15:55;99912.25;;;11.79;57.11
35443;BME280;21561;55.654;37.592;2023-05-12T01:18:24;99907.06;;;11.81;57.10
35443;BME280;21561;55.654;37.592;2023-05-12T01:20:54;99906.19;;;11.79;56.78
35443;BME280;21561;55.654;37.592;2023-05-12T01:23:23;99899.28;;;11.78;56.37
35443;BME280;21561;55.654;37.592;2023-05-12T01:25:52;99913.19;;;11.74;57.05
35443;BME280;21561;55.654;37.592;2023-05-12T01:28:20;99915.78;;;11.71;57.67
35443;BME280;21561;55.654;37.592;2023-05-12T01:30:47;99907.09;;;11.75;56.97
35443;BME280;21561;55.654;37.592;2023-05-12T01:33:14;99906.25;;;11.70;56.70
35443;BME280;21561;55.654;37.592;2023-05-12T01:35:40;99920.16;;;11.62;57.57
35443;BME280;21561;55.654;37.592;2023-05-12T01:38:07;99908.91;;;11.65;57.44
35443;BME280;21561;55.654;37.592;2023-05-12T01:40:34;99910.66;;;11.61;56.87
35443;BME280;21561;55.654;37.592;2023-05-12T01:43:00;99904.56;;;11.65;57.09
35443;BME280;21561;55.654;37.592;2023-05-12T01:45:27;99903.75;;;11.57;56.94
35443;BME280;21561;55.654;37.592;2023-05-12T01:47:53;99914.97;;;11.61;57.68
35443;BME280;21561;55.654;37.592;2023-05-12T01:50:20;99903.75;;;11.57;57.12
35443;BME280;21561;55.654;37.592;2023-05-12T01:52:47;99916.78;;;11.54;57.83
35443;BME280;21561;55.654;37.592;2023-05-12T01:55:14;99905.47;;;11.58;57.02
35443;BME280;21561;55.654;37.592;2023-05-12T01:57:41;99909.81;;;11.56;57.16
35443;BME280;21561;55.654;37.592;2023-05-12T02:00:08;99902.88;;;11.55;56.72
35443;BME280;21561;55.654;37.592;2023-05-12T02:02:34;99898.56;;;11.56;56.94
35443;BME280;21561;55.654;37.592;2023-05-12T02:05:01;99902.03;;;11.59;56.40
35443;BME280;21561;55.654;37.592;2023-05-12T02:07:28;99897.66;;;11.61;56.43
35443;BME280;21561;55.654;37.592;2023-05-12T02:09:55;99897.63;;;11.66;56.07
35443;BME280;21561;55.654;37.592;2023-05-12T02:12:21;99897.59;;;11.68;56.02
35443;BME280;21561;55.654;37.592;2023-05-12T02:14:48;99894.97;;;11.72;55.69
35443;BME280;21561;55.654;37.592;2023-05-12T02:17:15;99893.22;;;11.76;55.48
35443;BME280;21561;55.654;37.592;2023-05-12T02:19:42;99890.63;;;11.76;54.98
35443;BME280;21561;55.654;37.592;2023-05-12T02:22:09;99898.38;;;11.80;55.30
35443;BME280;21561;55.654;37.592;2023-05-12T02:24:35;99895.75;;;11.82;55.00
35443;BME280;21561;55.654;37.592;2023-05-12T02:27:02;99890.53;;;11.88;54.85
35443;BME280;21561;55.654;37.592;2023-05-12T02:29:28;99888.81;;;11.90;54.73
35443;BME280;21561;55.654;37.592;2023-05-12T02:31:55;99899.22;;;11.90;54.61
35443;BME280;21561;55.654;37.592;2023-05-12T02:34:21;99882.72;;;11.88;54.25
35443;BME280;21561;55.654;37.592;2023-05-12T02:36:48;99892.25;;;11.92;54.23
35443;BME280;21561;55.654;37.592;2023-05-12T02:39:15;99881.84;;;11.89;53.91
35443;BME280;21561;55.654;37.592;2023-05-12T02:41:41;99885.31;;;11.91;54.16
35443;BME280;21561;55.654;37.592;2023-05-12T02:44:08;99893.09;;;11.96;53.94
35443;BME280;21561;55.654;37.592;2023-05-12T02:46:35;99895.66;;;11.99;54.01
35443;BME280;21561;55.654;37.592;2023-05-12T02:49:02;99889.56;;;12.00;53.97
35443;BME280;21561;55.654;37.592;2023-05-12T02:51:29;99888.75;;;11.96;53.98
35443;BME280;21561;55.654;37.592;2023-05-12T02:53:57;99896.50;;;12.01;53.92
35443;BME280;21561;55.654;37.592;2023-05-12T02:56:23;99900.81;;;12.03;53.76
35443;BME280;21561;55.654;37.592;2023-05-12T02:58:50;99895.59;;;12.07;53.72
35443;BME280;21561;55.654;37.592;2023-05-12T03:01:17;99895.59;;;12.07;53.72
35443;BME280;21561;55.654;37.592;2023-05-12T03:03:43;99898.16;;;12.10;53.44
35443;BME280;21561;55.654;37.592;2023-05-12T03:06:10;99897.25;;;12.15;53.57
35443;BME280;21561;55.654;37.592;2023-05-12T03:08:37;99907.66;;;12.15;53.84
35443;BME280;21561;55.654;37.592;2023-05-12T03:11:04;99898.94;;;12.18;53.79
35443;BME280;21561;55.654;37.592;2023-05-12T03:13:30;99904.13;;;12.19;53.63
35443;BME280;21561;55.654;37.592;2023-05-12T03:15:57;99897.16;;;12.23;53.53
35443;BME280;21561;55.654;37.592;2023-05-12T03:18:27;99897.13;;;12.29;53.51
35443;BME280;21561;55.654;37.592;2023-05-12T03:20:56;99897.94;;;12.33;53.38
35443;BME280;21561;55.654;37.592;2023-05-12T03:23:23;99903.97;;;12.36;53.71
35443;BME280;21561;55.654;37.592;2023-05-12T03:25:50;99896.94;;;12.45;53.26
35443;BME280;21561;55.654;37.592;2023-05-12T03:28:16;99899.50;;;12.51;53.22
35443;BME280;21561;55.654;37.592;2023-05-12T03:30:43;99895.97;;;12.56;53.23
35443;BME280;21561;55.654;37.592;2023-05-12T03:33:10;99894.16;;;12.62;53.21
35443;BME280;21561;55.654;37.592;2023-05-12T03:35:36;99901.88;;;12.69;53.22
35443;BME280;21561;55.654;37.592;2023-05-12T03:38:03;99884.53;;;12.68;52.86
35443;BME280;21561;55.654;37.592;2023-05-12T03:40:30;99898.31;;;12.76;52.90
35443;BME280;21561;55.654;37.592;2023-05-12T03:42:56;99890.41;;;12.84;52.75
35443;BME280;21561;55.654;37.592;2023-05-12T03:45:23;99886.03;;;12.88;52.74
35443;BME280;21561;55.654;37.592;2023-05-12T03:47:50;99887.69;;;12.93;52.64
35443;BME280;21561;55.654;37.592;2023-05-12T03:50:17;99889.31;;;13.02;52.67
35443;BME280;21561;55.654;37.592;2023-05-12T03:52:44;99883.16;;;13.08;52.44
35443;BME280;21561;55.654;37.592;2023-05-12T03:55:11;99889.19;;;13.11;52.50
35443;BME280;21561;55.654;37.592;2023-05-12T03:57:37;99873.53;;;13.11;51.61
35443;BME280;21561;55.654;37.592;2023-05-12T04:00:04;99885.66;;;13.15;52.12
35443;BME280;21561;55.654;37.592;2023-05-12T04:02:31;99882.13;;;13.20;52.24
35443;BME280;21561;55.654;37.592;2023-05-12T04:04:58;99887.31;;;13.21;52.10
35443;BME280;21561;55.654;37.592;2023-05-12T04:07:25;99879.41;;;13.26;51.85
35443;BME280;21561;55.654;37.592;2023-05-12T04:09:51;99884.59;;;13.30;51.90
35443;BME280;21561;55.654;37.592;2023-05-12T04:12:18;99890.53;;;13.40;51.84
35443;BME280;21561;55.654;37.592;2023-05-12T04:14:44;99883.53;;;13.45;52.00
35443;BME280;21561;55.654;37.592;2023-05-12T04:17:11;99887.06;;;13.41;51.88
35443;BME280;21561;55.654;37.592;2023-05-12T04:19:38;99877.44;;;13.45;51.76
35443;BME280;21561;55.654;37.592;2023-05-12T04:22:04;99869.69;;;13.40;51.19
35443;BME280;21561;55.654;37.592;2023-05-12T04:24:31;99876.59;;;13.44;51.37
35443;BME280;21561;55.654;37.592;2023-05-12T04:26:58;99878.25;;;13.48;51.63
35443;BME280;21561;55.654;37.592;2023-05-12T04:29:24;99871.28;;;13.50;51.75
35443;BME280;21561;55.654;37.592;2023-05-12T04:31:53;99863.47;;;13.49;51.25
35443;BME280;21561;55.654;37.592;2023-05-12T04:34:19;99874.72;;;13.52;51.40
35443;BME280;21561;55.654;37.592;2023-05-12T04:36:46;99868.53;;;13.58;51.60
35443;BME280;21561;55.654;37.592;2023-05-12T04:39:13;99865.91;;;13.60;51.24
35443;BME280;21561;55.654;37.592;2023-05-12T04:41:39;99867.56;;;13.64;51.41
35443;BME280;21561;55.654;37.592;2023-05-12T04:44:06;99869.28;;;13.68;51.43
35443;BME280;21561;55.654;37.592;2023-05-12T04:46:33;99847.50;;;13.70;50.73
35443;BME280;21561;55.654;37.592;2023-05-12T04:48:59;99868.31;;;13.73;51.10
35443;BME280;21561;55.654;37.592;2023-05-12T04:51:26;99874.28;;;13.80;51.03
35443;BME280;21561;55.654;37.592;2023-05-12T04:53:53;99863.69;;;13.89;51.03
35443;BME280;21561;55.654;37.592;2023-05-12T04:56:19;99863.69;;;13.89;50.95
35443;BME280;21561;55.654;37.592;2023-05-12T04:58:47;99870.53;;;13.97;51.05
35443;BME280;21561;55.654;37.592;2023-05-12T05:01:14;99859.06;;;14.07;50.82
35443;BME280;21561;55.654;37.592;2023-05-12T05:03:40;99867.59;;;14.13;50.88
35443;BME280;21561;55.654;37.592;2023-05-12T05:06:07;99839.81;;;14.12;49.91
35443;BME280;21561;55.654;37.592;2023-05-12T05:08:34;99868.41;;;14.17;50.78
35443;BME280;21561;55.654;37.592;2023-05-12T05:11:00;99842.25;;;14.20;49.85
35443;BME280;21561;55.654;37.592;2023-05-12T05:13:27;99860.50;;;14.22;50.26
35443;BME280;21561;55.654;37.592;2023-05-12T05:15:53;99855.25;;;14.23;50.27
35443;BME280;21561;55.654;37.592;2023-05-12T05:18:20;99858.75;;;14.22;50.22
35443;BME280;21561;55.654;37.592;2023-05-12T05:20:49;99854.34;;;14.24;49.84
35443;BME280;21561;55.654;37.592;2023-05-12T05:23:24;99867.38;;;14.26;50.04
35443;BME280;21561;55.654;37.592;2023-05-12T05:25:51;99868.00;;;14.39;50.27
35443;BME280;21561;55.654;37.592;2023-05-12T05:28:18;99862.59;;;14.48;50.07
35443;BME280;21561;55.654;37.592;2023-05-12T05:30:44;99866.94;;;14.49;50.07
35443;BME280;21561;55.654;37.592;2023-05-12T05:33:11;99871.28;;;14.50;50.16
35443;BME280;21561;55.654;37.592;2023-05-12T05:35:38;99867.75;;;14.52;50.17
35443;BME280;21561;55.654;37.592;2023-05-12T05:38:05;99877.25;;;14.58;50.33
35443;BME280;21561;55.654;37.592;2023-05-12T05:40:31;99858.72;;;14.70;50.00
35443;BME280;21561;55.654;37.592;2023-05-12T05:43:17;99835.97;;;14.76;49.08
35443;BME280;21561;55.654;37.592;2023-05-12T05:45:43;99822.09;;;14.74;48.68
35443;BME280;21561;55.654;37.592;2023-05-12T05:48:10;99831.66;;;14.73;49.21
35443;BME280;21561;55.654;37.592;2023-05-12T05:50:37;99846.47;;;14.73;49.10
35443;BME280;21561;55.654;37.592;2023-05-12T05:53:04;99849.84;;;14.78;49.28
35443;BME280;21561;55.654;37.592;2023-05-12T05:55:31;99836.75;;;14.81;48.80
35443;BME280;21561;55.654;37.592;2023-05-12T05:57:58;99838.41;;;14.83;48.99
35443;BME280;21561;55.654;37.592;2023-05-12T06:00:24;99836.50;;;14.92;48.85
35443;BME280;21561;55.654;37.592;2023-05-12T06:02:51;99833.63;;;15.04;48.92
35443;BME280;21561;55.654;37.592;2023-05-12T06:05:18;99829.91;;;15.13;48.61
35443;BME280;21561;55.654;37.592;2023-05-12T06:07:45;99820.97;;;15.23;48.35
35443;BME280;21561;55.654;37.592;2023-05-12T06:10:11;99817.31;;;15.30;48.37
35443;BME280;21561;55.654;37.592;2023-05-12T06:12:38;99814.47;;;15.39;48.26
35443;BME280;21561;55.654;37.592;2023-05-12T06:15:06;99786.41;;;15.48;46.54
35443;BME280;21561;55.654;37.592;2023-05-12T06:17:33;99789.78;;;15.53;47.61
35443;BME280;21561;55.654;37.592;2023-05-12T06:19:59;99786.13;;;15.58;47.11
35443;BME280;21561;55.654;37.592;2023-05-12T06:22:26;99781.66;;;15.63;47.03
35443;BME280;21561;55.654;37.592;2023-05-12T06:24:53;99790.16;;;15.70;46.84
35443;BME280;21561;55.654;37.592;2023-05-12T06:27:19;99785.72;;;15.75;46.94
35443;BME280;21561;55.654;37.592;2023-05-12T06:29:46;99796.06;;;15.80;46.91
35443;BME280;21561;55.654;37.592;2023-05-12T06:32:13;99784.59;;;15.86;46.81
35443;BME280;21561;55.654;37.592;2023-05-12T06:34:39;99794.91;;;15.92;47.03
35443;BME280;21561;55.654;37.592;2023-05-12T06:37:06;99801.69;;;15.99;47.07
35443;BME280;21561;55.654;37.592;2023-05-12T06:39:33;99793.66;;;16.05;46.93
35443;BME280;21561;55.654;37.592;2023-05-12T06:41:59;99582.34;;;16.12;41.42
35443;BME280;21561;55.654;37.592;2023-05-12T06:44:26;99629.84;;;16.28;43.53
35443;BME280;21561;55.654;37.592;2023-05-12T06:46:52;99537.09;;;16.35;41.27
35443;BME280;21561;55.654;37.592;2023-05-12T06:49:19;99600.53;;;16.43;42.99
35443;BME280;21561;55.654;37.592;2023-05-12T06:51:46;99483.84;;;16.61;40.08
35443;BME280;21561;55.654;37.592;2023-05-12T06:54:13;99384.13;;;16.66;39.03
35443;BME280;21561;55.654;37.592;2023-05-12T06:56:39;99443.69;;;16.60;39.63
35443;BME280;21561;55.654;37.592;2023-05-12T06:59:06;99508.16;;;16.65;40.86
35443;BME280;21561;55.654;37.592;2023-05-12T07:01:32;99528.06;;;16.70;40.72
35443;BME280;21561;55.654;37.592;2023-05-12T07:03:59;99526.88;;;16.79;40.74
35443;BME280;21561;55.654;37.592;2023-05-12T07:06:26;99496.97;;;16.86;39.75
35443;BME280;21561;55.654;37.592;2023-05-12T07:08:53;99477.72;;;16.87;39.73
35443;BME280;21561;55.654;37.592;2023-05-12T07:11:20;99447.06;;;16.89;37.95
35443;BME280;21561;55.654;37.592;2023-05-12T07:13:47;99280.03;;;16.94;34.22
35443;BME280;21561;55.654;37.592;2023-05-12T07:16:14;99107.56;;;17.03;32.44
35443;BME280;21561;55.654;37.592;2023-05-12T07:18:41;99197.19;;;17.12;36.11
35443;BME280;21561;55.654;37.592;2023-05-12T07:21:08;99243.06;;;17.23;36.21
35443;BME280;21561;55.654;37.592;2023-05-12T07:23:35;99273.19;;;17.34;36.43
35443;BME280;21561;55.654;37.592;2023-05-12T07:26:03;99111.50;;;17.33;33.11
35443;BME280;21561;55.654;37.592;2023-05-12T07:28:30;99151.56;;;17.37;34.61
35443;BME280;21561;55.654;37.592;2023-05-12T07:30:57;99119.13;;;17.40;32.98
35443;BME280;21561;55.654;37.592;2023-05-12T07:33:24;99106.59;;;17.46;33.98
35443;BME280;21561;55.654;37.592;2023-05-12T07:35:51;99147.63;;;17.47;34.75
35443;BME280;21561;55.654;37.592;2023-05-12T07:38:18;99205.94;;;17.54;35.08
35443;BME280;21561;55.654;37.592;2023-05-12T07:40:44;99231.66;;;17.66;34.88
35443;BME280;21561;55.654;37.592;2023-05-12T07:43:11;99150.81;;;17.74;34.53
35443;BME280;21561;55.654;37.592;2023-05-12T07:45:37;99190.69;;;17.83;34.36
35443;BME280;21561;55.654;37.592;2023-05-12T07:48:04;99172.22;;;17.86;34.52
35443;BME280;21561;55.654;37.592;2023-05-12T07:50:31;99130.25;;;17.86;32.44
35443;BME280;21561;55.654;37.592;2023-05-12T07:52:57;99106.31;;;17.92;33.52
35443;BME280;21561;55.654;37.592;2023-05-12T07:55:24;99076.38;;;17.96;33.40
35443;BME280;21561;55.654;37.592;2023-05-12T07:57:51;99029.31;;;17.93;32.09
35443;BME280;21561;55.654;37.592;2023-05-12T08:00:18;99050.44;;;18.09;32.35
35443;BME280;21561;55.654;37.592;2023-05-12T08:02:44;99042.63;;;18.07;33.05
35443;BME280;21561;55.654;37.592;2023-05-12T08:05:12;99031.03;;;18.11;32.48
35443;BME280;21561;55.654;37.592;2023-05-12T08:07:39;99099.66;;;18.23;33.47
35443;BME280;21561;55.654;37.592;2023-05-12T08:10:09;99040.31;;;18.38;31.92
35443;BME280;21561;55.654;37.592;2023-05-12T08:12:36;99047.47;;;18.51;31.62
35443;BME280;21561;55.654;37.592;2023-05-12T08:15:03;98985.81;;;18.59;30.51
35443;BME280;21561;55.654;37.592;2023-05-12T08:17:30;98940.31;;;18.76;31.13
35443;BME280;21561;55.654;37.592;2023-05-12T08:19:57;98995.13;;;18.83;31.73
35443;BME280;21561;55.654;37.592;2023-05-12T08:22:23;99049.69;;;18.96;32.40
35443;BME280;21561;55.654;37.592;2023-05-12T08:24:50;99045.56;;;19.07;32.07
35443;BME280;21561;55.654;37.592;2023-05-12T08:27:18;98963.69;;;19.15;31.08
35443;BME280;21561;55.654;37.592;2023-05-12T08:29:46;98924.84;;;19.20;30.70
35443;BME280;21561;55.654;37.592;2023-05-12T08:32:12;98879.19;;;19.21;29.78
35443;BME280;21561;55.654;37.592;2023-05-12T08:34:40;98896.59;;;19.24;30.50
35443;BME280;21561;55.654;37.592;2023-05-12T08:37:06;98804.25;;;19.29;28.79
35443;BME280;21561;55.654;37.592;2023-05-12T08:39:33;98804.19;;;19.30;29.11
35443;BME280;21561;55.654;37.592;2023-05-12T08:42:11;98672.59;;;19.32;25.34
35443;BME280;21561;55.654;37.592;2023-05-12T08:44:39;98600.41;;;19.21;26.64
35443;BME280;21561;55.654;37.592;2023-05-12T08:47:06;98545.94;;;19.09;25.49
35443;BME280;21561;55.654;37.592;2023-05-12T08:49:34;98516.63;;;19.01;24.79
35443;BME280;21561;55.654;37.592;2023-05-12T08:52:01;98515.69;;;19.02;25.83
35443;BME280;21561;55.654;37.592;2023-05-12T08:54:28;98533.00;;;19.06;24.81
35443;BME280;21561;55.654;37.592;2023-05-12T08:56:55;98477.22;;;19.01;24.88
35443;BME280;21561;55.654;37.592;2023-05-12T08:59:25;98518.41;;;19.00;25.70
35443;BME280;21561;55.654;37.592;2023-05-12T09:01:52;98524.53;;;19.01;25.83
35443;BME280;21561;55.654;37.592;2023-05-12T09:04:20;98566.03;;;19.10;25.98
35443;BME280;21561;55.654;37.592;2023-05-12T09:06:46;98605.59;;;19.23;26.79
35443;BME280;21561;55.654;37.592;2023-05-12T09:09:14;98559.84;;;19.25;25.38
35443;BME280;21561;55.654;37.592;2023-05-12T09:11:42;98602.06;;;19.38;26.60
35443;BME280;21561;55.654;37.592;2023-05-12T09:14:11;98641.06;;;19.46;27.36
35443;BME280;21561;55.654;37.592;2023-05-12T09:16:44;98690.69;;;19.67;27.63
35443;BME280;21561;55.654;37.592;2023-05-12T09:19:12;98658.97;;;19.84;27.37
35443;BME280;21561;55.654;37.592;2023-05-12T09:21:39;98629.66;;;19.90;26.95
35443;BME280;21561;55.654;37.592;2023-05-12T09:24:07;98634.34;;;19.99;26.95
35443;BME280;21561;55.654;37.592;2023-05-12T09:26:51;98590.41;;;20.14;25.90
35443;BME280;21561;55.654;37.592;2023-05-12T09:29:18;98585.06;;;20.16;25.83
35443;BME280;21561;55.654;37.592;2023-05-12T09:31:57;98577.97;;;20.16;25.29
35443;BME280;21561;55.654;37.592;2023-05-12T09:34:29;98553.53;;;20.14;25.88
35443;BME280;21561;55.654;37.592;2023-05-12T09:36:57;98526.38;;;20.14;24.48
35443;BME280;21561;55.654;37.592;2023-05-12T09:39:24;98520.88;;;20.17;25.68
35443;BME280;21561;55.654;37.592;2023-05-12T09:41:51;98513.34;;;20.25;25.23
35443;BME280;21561;55.654;37.592;2023-05-12T09:44:18;98518.75;;;20.36;25.68
35443;BME280;21561;55.654;37.592;2023-05-12T09:46:45;98520.38;;;20.52;25.38
35443;BME280;21561;55.654;37.592;2023-05-12T09:49:12;98560.19;;;20.62;25.76
35443;BME280;21561;55.654;37.592;2023-05-12T09:51:39;98599.56;;;20.77;26.46
35443;BME280;21561;55.654;37.592;2023-05-12T09:54:06;98512.81;;;20.87;23.55
35443;BME280;21561;55.654;37.592;2023-05-12T09:56:33;98499.19;;;20.81;24.21
35443;BME280;21561;55.654;37.592;2023-05-12T09:59:03;98518.06;;;20.60;25.15
35443;BME280;21561;55.654;37.592;2023-05-12T10:01:30;98532.59;;;20.53;25.39
35443;BME280;21561;55.654;37.592;2023-05-12T10:03:57;98513.63;;;20.48;24.76
35443;BME280;21561;55.654;37.592;2023-05-12T10:11:41;98508.03;;;20.12;24.64
35443;BME280;21561;55.654;37.592;2023-05-12T10:14:08;98500.59;;;20.19;25.03
35443;BME280;21561;55.654;37.592;2023-05-12T10:16:36;98509.06;;;20.10;25.32
35443;BME280;21561;55.654;37.592;2023-05-12T10:19:03;98520.44;;;20.10;25.48
35443;BME280;21561;55.654;37.592;2023-05-12T10:21:31;98523.00;;;20.12;25.03
35443;BME280;21561;55.654;37.592;2023-05-12T10:23:58;98562.66;;;20.23;26.06
35443;BME280;21561;55.654;37.592;2023-05-12T10:26:25;98524.47;;;20.70;25.08
35443;BME280;21561;55.654;37.592;2023-05-12T10:28:52;98498.13;;;21.34;24.78
35443;BME280;21561;55.654;37.592;2023-05-12T10:31:19;98424.97;;;21.86;22.65
35443;BME280;21561;55.654;37.592;2023-05-12T10:33:54;98423.94;;;22.24;23.49
35443;BME280;21561;55.654;37.592;2023-05-12T10:36:21;98325.88;;;21.93;21.71
35443;BME280;21561;55.654;37.592;2023-05-12T10:38:48;98342.63;;;21.81;22.64
35443;BME280;21561;55.654;37.592;2023-05-12T10:41:27;98376.94;;;21.44;23.13
35443;BME280;21561;55.654;37.592;2023-05-12T10:43:54;98414.13;;;21.41;24.17
35443;BME280;21561;55.654;37.592;2023-05-12T10:46:21;98430.78;;;21.42;24.17
35443;BME280;21561;55.654;37.592;2023-05-12T10:51:24;98490.22;;;21.47;25.14
35443;BME280;21561;55.654;37.592;2023-05-12T10:56:24;98492.81;;;21.73;24.48
35443;BME280;21561;55.654;37.592;2023-05-12T10:59:07;98453.00;;;21.76;23.53
35443;BME280;21561;55.654;37.592;2023-05-12T11:01:36;98450.91;;;21.92;23.07
35443;BME280;21561;55.654;37.592;2023-05-12T11:04:11;98483.63;;;22.03;24.24
35443;BME280;21561;55.654;37.592;2023-05-12T11:06:39;98437.03;;;21.78;23.12
35443;BME280;21561;55.654;37.592;2023-05-12T11:09:07;98446.94;;;21.37;23.93
35443;BME280;21561;55.654;37.592;2023-05-12T11:11:34;98480.22;;;21.14;24.55
35443;BME280;21561;55.654;37.592;2023-05-12T11:14:01;98482.28;;;20.70;24.25
35443;BME280;21561;55.654;37.592;2023-05-12T11:16:28;98507.91;;;20.68;24.66
35443;BME280;21561;55.654;37.592;2023-05-12T11:19:04;98516.59;;;20.56;24.45
35443;BME280;21561;55.654;37.592;2023-05-12T11:21:31;98531.97;;;20.49;24.85
35443;BME280;21561;55.654;37.592;2023-05-12T11:23:58;98525.22;;;20.45;24.77
35443;BME280;21561;55.654;37.592;2023-05-12T11:26:26;98542.13;;;20.55;25.17
35443;BME280;21561;55.654;37.592;2023-05-12T11:28:53;98528.19;;;20.81;24.43
35443;BME280;21561;55.654;37.592;2023-05-12T11:31:20;98544.91;;;21.20;25.00
35443;BME280;21561;55.654;37.592;2023-05-12T11:33:47;98564.09;;;22.23;24.75
35443;BME280;21561;55.654;37.592;2023-05-12T11:36:26;98531.47;;;23.87;24.23
35443;BME280;21561;55.654;37.592;2023-05-12T11:38:53;98445.91;;;24.93;23.30
35443;BME280;21561;55.654;37.592;2023-05-12T11:41:24;98439.44;;;25.38;22.85
35443;BME280;21561;55.654;37.592;2023-05-12T11:43:51;98332.16;;;25.79;20.51
35443;BME280;21561;55.654;37.592;2023-05-12T11:46:24;98277.84;;;26.11;21.69
35443;BME280;21561;55.654;37.592;2023-05-12T11:48:55;98347.75;;;26.51;21.87
35443;BME280;21561;55.654;37.592;2023-05-12T11:51:22;98348.25;;;26.83;22.77
35443;BME280;21561;55.654;37.592;2023-05-12T11:53:50;98212.72;;;27.18;18.32
35443;BME280;21561;55.654;37.592;2023-05-12T11:56:17;98185.13;;;26.73;20.20
35443;BME280;21561;55.654;37.592;2023-05-12T11:58:51;98247.41;;;26.80;20.84
35443;BME280;21561;55.654;37.592;2023-05-12T12:01:18;98245.38;;;27.38;20.63
35443;BME280;21561;55.654;37.592;2023-05-12T12:03:45;98258.91;;;27.98;20.52
35443;BME280;21561;55.654;37.592;2023-05-12T12:06:15;98126.53;;;28.15;17.54
35443;BME280;21561;55.654;37.592;2023-05-12T12:11:38;98190.22;;;28.18;18.96
35443;BME280;21561;55.654;37.592;2023-05-12T12:14:05;98180.63;;;27.55;20.14
35443;BME280;21561;55.654;37.592;2023-05-12T12:16:32;98188.22;;;26.41;18.17
35443;BME280;21561;55.654;37.592;2023-05-12T12:18:59;98170.00;;;25.42;18.95
35443;BME280;21561;55.654;37.592;2023-05-12T12:21:25;98147.03;;;24.72;19.26
35443;BME280;21561;55.654;37.592;2023-05-12T12:23:52;98153.19;;;24.92;19.16
35443;BME280;21561;55.654;37.592;2023-05-12T12:26:19;98136.88;;;25.26;18.92
35443;BME280;21561;55.654;37.592;2023-05-12T12:28:47;98126.34;;;25.64;19.22
35443;BME280;21561;55.654;37.592;2023-05-12T12:31:14;98102.97;;;26.15;17.86
35443;BME280;21561;55.654;37.592;2023-05-12T12:33:41;98090.03;;;26.29;18.43
35443;BME280;21561;55.654;37.592;2023-05-12T12:36:08;98073.44;;;25.23;18.71
35443;BME280;21561;55.654;37.592;2023-05-12T12:38:34;98141.16;;;24.59;19.50
35443;BME280;21561;55.654;37.592;2023-05-12T12:41:01;98181.44;;;24.12;20.06
35443;BME280;21561;55.654;37.592;2023-05-12T12:43:27;98200.53;;;23.85;20.62
35443;BME280;21561;55.654;37.592;2023-05-12T12:45:54;98227.53;;;24.00;20.79
35443;BME280;21561;55.654;37.592;2023-05-12T12:48:21;98239.91;;;24.82;20.32
35443;BME280;21561;55.654;37.592;2023-05-12T12:50:47;98176.97;;;25.04;18.74
35443;BME280;21561;55.654;37.592;2023-05-12T12:53:14;98167.31;;;25.03;19.10
35443;BME280;21561;55.654;37.592;2023-05-12T12:55:42;98195.97;;;25.09;19.99
35443;BME280;21561;55.654;37.592;2023-05-12T12:58:08;98164.63;;;24.83;19.32
35443;BME280;21561;55.654;37.592;2023-05-12T13:00:35;98188.91;;;24.69;19.91
35443;BME280;21561;55.654;37.592;2023-05-12T13:03:02;98180.50;;;24.64;19.88
35443;BME280;21561;55.654;37.592;2023-05-12T13:05:28;98196.19;;;24.76;19.73
35443;BME280;21561;55.654;37.592;2023-05-12T13:07:55;98195.63;;;24.73;19.36